Time;durP1;ratioP1;P1;durP2;ratioP2;P2;SDS_P1;SDS_P2;PMS_P1;PMS_P2;Temp;Humidity;BMP_temperature;BMP_pressure;BME280_temperature;BME280_humidity;BME280_pressure;Samples;Min_cycle;Max_cycle;Signal;HPM_P1;HPM_P2
2022/05/04 00:00:57;;;;;;;7.32;6.55;;;;;;;;;;7335834;19;161881;-15
2022/05/04 00:03:28;;;;;;;8.45;6.95;;;;;;;;;;7334839;19;162664;-15
2022/05/04 00:05:59;;;;;;;7.55;6.85;;;;;;;;;;7335429;19;154041;-16
2022/05/04 00:08:31;;;;;;;9.63;6.35;;;;;;;;;;7334827;19;153394;-15
2022/05/04 00:11:03;;;;;;;6.72;6.03;;;;;;;;;;7336618;19;162003;-15
2022/05/04 00:13:39;;;;;;;6.20;5.60;;;;;;;;;;7330552;19;162654;-15
2022/05/04 00:16:10;;;;;;;6.95;6.22;;;;;;;;;;7332896;19;154193;-17
2022/05/04 00:18:42;;;;;;;7.65;6.03;;;;;;;;;;7332108;19;153481;-16
2022/05/04 00:21:13;;;;;;;7.47;5.63;;;;;;;;;;7332255;19;162003;-15
2022/05/04 00:23:45;;;;;;;7.20;6.40;;;;;;;;;;7332597;19;162334;-14
2022/05/04 00:26:16;;;;;;;6.40;5.35;;;;;;;;;;7333586;19;154732;-14
2022/05/04 00:28:50;;;;;;;6.20;5.60;;;;;;;;;;7337571;19;153821;-13
2022/05/04 00:31:22;;;;;;;7.15;5.57;;;;;;;;;;7337468;19;161982;-14
2022/05/04 00:33:54;;;;;;;6.65;5.90;;;;;;;;;;7336509;19;162686;-15
2022/05/04 00:36:25;;;;;;;9.07;5.63;;;;;;;;;;7336455;19;154094;-14
2022/05/04 00:38:57;;;;;;;5.68;5.13;;;;;;;;;;7337416;19;153691;-15
2022/05/04 00:41:28;;;;;;;7.00;5.93;;;;;;;;;;7336335;19;162220;-17
2022/05/04 00:44:02;;;;;;;7.72;5.45;;;;;;;;;;7337297;19;162385;-17
2022/05/04 00:46:33;;;;;;;6.50;5.68;;;;;;;;;;7337574;19;154151;-15
2022/05/04 00:49:05;;;;;;;6.75;5.32;;;;;;;;;;7336805;19;153682;-15
2022/05/04 00:51:37;;;;;;;5.80;5.20;;;;;;;;;;7336732;19;161840;-17
2022/05/04 00:54:08;;;;;;;6.63;5.53;;;;;;;;;;7336771;19;162545;-15
2022/05/04 00:56:40;;;;;;;6.25;5.65;;;;;;;;;;7337208;19;154022;-15
2022/05/04 00:59:11;;;;;;;6.40;5.43;;;;;;;;;;7336275;19;153608;-17
2022/05/04 01:01:43;;;;;;;5.82;5.22;;;;;;;;;;7334509;19;161615;-16
2022/05/04 01:04:14;;;;;;;6.13;5.57;;;;;;;;;;7336921;19;162948;-16
2022/05/04 01:06:45;;;;;;;5.85;5.25;;;;;;;;;;7333678;19;154210;-16
2022/05/04 01:09:17;;;;;;;5.80;5.30;;;;;;;;;;7333662;19;154163;-21
2022/05/04 01:11:49;;;;;;;6.57;5.10;;;;;;;;;;7333300;19;161859;-16
2022/05/04 01:14:23;;;;;;;6.43;5.15;;;;;;;;;;7333000;19;162416;-17
2022/05/04 01:16:54;;;;;;;9.32;5.53;;;;;;;;;;7333430;19;154264;-18
2022/05/04 01:19:26;;;;;;;4.85;4.45;;;;;;;;;;7333285;19;153959;-15
2022/05/04 01:22:00;;;;;;;6.18;4.78;;;;;;;;;;7332361;19;161817;-15
2022/05/04 01:24:33;;;;;;;6.35;4.63;;;;;;;;;;7332718;19;162564;-17
2022/05/04 01:27:04;;;;;;;6.85;5.15;;;;;;;;;;7332021;19;154532;-17
2022/05/04 01:29:36;;;;;;;5.63;5.13;;;;;;;;;;7333126;19;153560;-18
2022/05/04 01:32:09;;;;;;;5.60;5.10;;;;;;;;;;7332721;19;162242;-17
2022/05/04 01:34:40;;;;;;;5.88;5.07;;;;;;;;;;7332601;19;162563;-16
2022/05/04 01:37:17;;;;;;;5.30;4.30;;;;;;;;;;7330391;19;154082;-17
2022/05/04 01:39:48;;;;;;;5.53;4.53;;;;;;;;;;7332740;19;153816;-16
2022/05/04 01:42:23;;;;;;;5.18;4.68;;;;;;;;;;7331565;19;161949;-16
2022/05/04 01:44:55;;;;;;;5.43;4.93;;;;;;;;;;7332100;19;162660;-15
2022/05/04 01:47:26;;;;;;;4.93;4.38;;;;;;;;;;7332534;19;154121;-17
2022/05/04 01:49:58;;;;;;;5.40;4.88;;;;;;;;;;7331291;19;153751;-18
2022/05/04 01:52:32;;;;;;;5.05;4.55;;;;;;;;;;7332176;19;161908;-16
2022/05/04 01:55:04;;;;;;;5.32;4.82;;;;;;;;;;7331989;19;162327;-22
2022/05/04 01:57:35;;;;;;;5.03;4.30;;;;;;;;;;7332335;19;154200;-17
2022/05/04 02:00:08;;;;;;;4.43;4.03;;;;;;;;;;7332028;19;153742;-17
2022/05/04 02:02:46;;;;;;;5.15;4.65;;;;;;;;;;7329393;19;161868;-17
2022/05/04 02:05:17;;;;;;;5.07;4.63;;;;;;;;;;7331359;19;162342;-17
2022/05/04 02:07:52;;;;;;;4.53;4.13;;;;;;;;;;7331725;19;154100;-17
2022/05/04 02:10:24;;;;;;;4.78;4.38;;;;;;;;;;7331647;19;153675;-16
2022/05/04 02:12:55;;;;;;;5.10;4.43;;;;;;;;;;7331378;19;162089;-14
2022/05/04 02:15:26;;;;;;;5.60;4.25;;;;;;;;;;7330201;19;162333;-16
2022/05/04 02:17:58;;;;;;;5.18;4.40;;;;;;;;;;7331847;19;154069;-16
2022/05/04 02:20:29;;;;;;;4.25;3.85;;;;;;;;;;7331654;19;153632;-16
2022/05/04 02:23:03;;;;;;;4.93;4.47;;;;;;;;;;7330186;19;162133;-14
2022/05/04 02:25:34;;;;;;;4.38;3.85;;;;;;;;;;7331309;19;162726;-17
2022/05/04 02:28:06;;;;;;;4.70;4.30;;;;;;;;;;7331370;19;154162;-14
2022/05/04 02:30:38;;;;;;;4.90;4.50;;;;;;;;;;7331163;19;153628;-16
2022/05/04 02:33:10;;;;;;;5.00;4.20;;;;;;;;;;7330982;19;161831;-17
2022/05/04 02:38:27;;;;;;;4.18;3.78;;;;;;;;;;7331209;19;154020;-16
2022/05/04 02:40:59;;;;;;;4.25;3.95;;;;;;;;;;7331022;19;153509;-16
2022/05/04 02:43:31;;;;;;;4.53;3.80;;;;;;;;;;7329415;19;161969;-17
2022/05/04 02:46:14;;;;;;;4.60;4.20;;;;;;;;;;7330472;19;162377;-15
2022/05/04 02:48:46;;;;;;;4.50;4.10;;;;;;;;;;7330841;19;154032;-17
2022/05/04 02:51:17;;;;;;;4.75;4.30;;;;;;;;;;7330722;19;153605;-17
2022/05/04 02:53:51;;;;;;;4.45;4.05;;;;;;;;;;7330361;19;162070;-16
2022/05/04 02:56:23;;;;;;;5.22;4.30;;;;;;;;;;7330227;19;162262;-16
2022/05/04 02:58:54;;;;;;;6.03;4.13;;;;;;;;;;7330357;19;154196;-17
2022/05/04 03:04:10;;;;;;;4.70;4.30;;;;;;;;;;7328390;19;161774;-18
2022/05/04 03:06:43;;;;;;;5.38;4.40;;;;;;;;;;7329702;19;162389;-16
2022/05/04 03:09:19;;;;;;;4.45;4.15;;;;;;;;;;7330442;19;154172;-17
2022/05/04 03:11:59;;;;;;;4.70;4.30;;;;;;;;;;7330271;19;153716;-16
2022/05/04 03:14:31;;;;;;;4.00;3.70;;;;;;;;;;7326934;19;162022;-17
2022/05/04 03:17:03;;;;;;;4.50;4.10;;;;;;;;;;7329595;19;162439;-16
2022/05/04 03:19:34;;;;;;;4.35;3.95;;;;;;;;;;7328684;19;154381;-18
2022/05/04 03:22:06;;;;;;;4.38;3.97;;;;;;;;;;7329738;19;153840;-18
2022/05/04 03:24:41;;;;;;;4.30;4.00;;;;;;;;;;7327578;19;162096;-16
2022/05/04 03:27:13;;;;;;;4.38;3.97;;;;;;;;;;7327896;19;162586;-17
2022/05/04 03:29:44;;;;;;;4.00;3.70;;;;;;;;;;7329590;19;154225;-17
2022/05/04 03:32:16;;;;;;;4.90;4.50;;;;;;;;;;7328874;19;153522;-18
2022/05/04 03:34:47;;;;;;;5.30;3.80;;;;;;;;;;7329267;19;161828;-13
2022/05/04 03:37:19;;;;;;;4.43;4.03;;;;;;;;;;7326447;19;162476;-17
2022/05/04 03:39:53;;;;;;;3.85;3.55;;;;;;;;;;7329425;19;153963;-16
2022/05/04 03:42:25;;;;;;;4.30;3.97;;;;;;;;;;7329086;19;154957;-16
2022/05/04 03:44:56;;;;;;;4.43;4.03;;;;;;;;;;7326762;19;162276;-16
2022/05/04 03:47:28;;;;;;;4.32;3.92;;;;;;;;;;7328727;19;162536;-15
2022/05/04 03:49:59;;;;;;;3.80;3.50;;;;;;;;;;7328923;19;154251;-15
2022/05/04 03:52:32;;;;;;;3.80;3.50;;;;;;;;;;7328663;19;153815;-15
2022/05/04 03:55:06;;;;;;;4.28;3.88;;;;;;;;;;7328186;19;161840;-14
2022/05/04 03:57:38;;;;;;;4.13;3.80;;;;;;;;;;7328242;19;162359;-14
2022/05/04 04:00:12;;;;;;;3.90;3.50;;;;;;;;;;7328620;19;154105;-14
2022/05/04 04:02:43;;;;;;;4.13;3.72;;;;;;;;;;7328448;19;153644;-15
2022/05/04 04:05:15;;;;;;;4.43;4.03;;;;;;;;;;7326407;19;161854;-15
2022/05/04 04:07:46;;;;;;;3.73;3.43;;;;;;;;;;7326946;19;162566;-14
2022/05/04 04:10:21;;;;;;;5.97;3.67;;;;;;;;;;7328272;19;154080;-14
2022/05/04 04:12:52;;;;;;;4.05;3.75;;;;;;;;;;7328141;19;153803;-16
2022/05/04 04:15:23;;;;;;;3.83;3.47;;;;;;;;;;7327282;19;161894;-17
2022/05/04 04:17:55;;;;;;;3.85;3.50;;;;;;;;;;7326182;19;162495;-16
2022/05/04 04:23:10;;;;;;;4.00;3.60;;;;;;;;;;7327860;19;153769;-18
2022/05/04 04:25:44;;;;;;;4.13;3.83;;;;;;;;;;7325946;19;162067;-15
2022/05/04 04:28:15;;;;;;;4.10;3.70;;;;;;;;;;7334293;19;162613;-14
2022/05/04 04:30:47;;;;;;;3.63;3.40;;;;;;;;;;7334773;19;154341;-15
2022/05/04 04:33:18;;;;;;;3.85;3.55;;;;;;;;;;7334548;19;153616;-15
2022/05/04 04:35:51;;;;;;;3.60;3.30;;;;;;;;;;7333289;19;161970;-17
2022/05/04 04:38:22;;;;;;;4.00;3.70;;;;;;;;;;7334988;19;162585;-15
2022/05/04 04:40:56;;;;;;;3.78;3.47;;;;;;;;;;7334205;19;154409;-14
2022/05/04 04:43:28;;;;;;;3.70;3.40;;;;;;;;;;7334261;19;153599;-17
2022/05/04 04:45:59;;;;;;;3.97;3.67;;;;;;;;;;7331753;19;161917;-15
2022/05/04 04:48:31;;;;;;;3.65;3.35;;;;;;;;;;7333616;19;162357;-17
2022/05/04 04:51:02;;;;;;;4.05;3.75;;;;;;;;;;7333968;19;154113;-17
2022/05/04 04:53:34;;;;;;;3.78;3.47;;;;;;;;;;7332337;19;153534;-14
2022/05/04 04:56:09;;;;;;;3.83;3.53;;;;;;;;;;7332084;19;162050;-16
2022/05/04 04:58:40;;;;;;;3.88;3.50;;;;;;;;;;7332998;19;162872;-14
2022/05/04 05:01:12;;;;;;;3.70;3.40;;;;;;;;;;7337478;19;154092;-14
2022/05/04 05:03:43;;;;;;;3.47;3.17;;;;;;;;;;7333020;19;153590;-17
2022/05/04 05:06:14;;;;;;;3.70;3.40;;;;;;;;;;7330869;19;161790;-16
2022/05/04 05:08:47;;;;;;;3.53;3.33;;;;;;;;;;7332915;19;162342;-15
2022/05/04 05:11:21;;;;;;;4.13;3.75;;;;;;;;;;7330862;19;154028;-13
2022/05/04 05:16:37;;;;;;;4.05;3.72;;;;;;;;;;7332842;19;161839;-17
2022/05/04 05:19:10;;;;;;;4.15;3.75;;;;;;;;;;7332713;19;162457;-14
2022/05/04 05:21:42;;;;;;;3.60;3.35;;;;;;;;;;7333159;19;154240;-14
2022/05/04 05:24:20;;;;;;;3.53;3.22;;;;;;;;;;7333062;19;153605;-15
2022/05/04 05:26:55;;;;;;;3.28;3.08;;;;;;;;;;7329957;19;162047;-14
2022/05/04 05:29:26;;;;;;;3.97;3.58;;;;;;;;;;7331785;19;162568;-15
2022/05/04 05:31:58;;;;;;;3.80;3.50;;;;;;;;;;7332825;19;154135;-16
2022/05/04 05:34:31;;;;;;;3.20;3.00;;;;;;;;;;7332792;19;153632;-16
2022/05/04 05:37:03;;;;;;;4.05;3.72;;;;;;;;;;7329802;19;161755;-14
2022/05/04 05:39:34;;;;;;;3.25;2.95;;;;;;;;;;7331431;19;162617;-15
2022/05/04 05:42:10;;;;;;;3.85;3.55;;;;;;;;;;7332641;19;153809;-15
2022/05/04 05:44:41;;;;;;;3.67;3.38;;;;;;;;;;7332698;19;153545;-16
2022/05/04 05:47:15;;;;;;;5.10;4.70;;;;;;;;;;7331729;19;162127;-15
2022/05/04 05:49:47;;;;;;;6.53;5.68;;;;;;;;;;7331963;19;162570;-15
2022/05/04 05:52:18;;;;;;;6.47;5.82;;;;;;;;;;7332440;19;154063;-22
2022/05/04 05:54:49;;;;;;;8.05;5.47;;;;;;;;;;7332288;19;153708;-16
2022/05/04 05:57:24;;;;;;;6.97;6.13;;;;;;;;;;7331922;19;161905;-15
2022/05/04 05:59:55;;;;;;;6.35;5.75;;;;;;;;;;7330757;19;162616;-16
2022/05/04 06:02:33;;;;;;;7.50;6.43;;;;;;;;;;7331989;19;154130;-17
2022/05/04 06:05:04;;;;;;;9.63;6.35;;;;;;;;;;7331701;19;153525;-15
2022/05/04 06:07:37;;;;;;;7.28;5.82;;;;;;;;;;7330932;19;161762;-15
2022/05/04 06:10:09;;;;;;;8.73;5.55;;;;;;;;;;7330473;19;162203;-17
2022/05/04 06:12:43;;;;;;;7.97;5.93;;;;;;;;;;7331807;19;154029;-16
2022/05/04 06:15:17;;;;;;;8.25;6.30;;;;;;;;;;7331413;19;153563;-15
2022/05/04 06:17:48;;;;;;;8.13;6.03;;;;;;;;;;7331158;19;161950;-16
2022/05/04 06:20:20;;;;;;;8.85;6.55;;;;;;;;;;7329855;19;162513;-18
2022/05/04 06:22:51;;;;;;;8.75;5.88;;;;;;;;;;7331663;19;154063;-16
2022/05/04 06:25:22;;;;;;;11.73;6.47;;;;;;;;;;7331059;19;153594;-15
2022/05/04 06:27:56;;;;;;;7.60;5.70;;;;;;;;;;7331010;19;162152;-16
2022/05/04 06:36:03;;;;;;;7.85;5.50;;;;;;;;;;7329937;19;153545;-17
2022/05/04 06:38:35;;;;;;;9.13;5.68;;;;;;;;;;7330424;19;162036;-15
2022/05/04 06:41:07;;;;;;;10.82;6.65;;;;;;;;;;7330511;19;162638;-17
2022/05/04 06:43:40;;;;;;;11.73;5.95;;;;;;;;;;7331678;19;153892;-16
2022/05/04 06:46:12;;;;;;;10.40;5.88;;;;;;;;;;7329955;19;153524;-17
2022/05/04 06:48:44;;;;;;;8.45;5.50;;;;;;;;;;7329734;19;162218;-17
2022/05/04 06:51:15;;;;;;;6.93;5.30;;;;;;;;;;7330245;19;162672;-16
2022/05/04 06:53:47;;;;;;;7.93;5.75;;;;;;;;;;7330115;19;154158;-14
2022/05/04 06:56:28;;;;;;;7.90;5.55;;;;;;;;;;7330230;19;153221;-16
2022/05/04 06:59:02;;;;;;;9.40;5.65;;;;;;;;;;7329751;19;162118;-16
2022/05/04 07:01:33;;;;;;;8.43;5.80;;;;;;;;;;7329840;19;162464;-15
2022/05/04 07:04:05;;;;;;;5.90;4.72;;;;;;;;;;7330027;19;154040;-16
2022/05/04 07:06:36;;;;;;;7.95;5.38;;;;;;;;;;7330966;19;153687;-16
2022/05/04 07:09:07;;;;;;;6.35;4.40;;;;;;;;;;7329554;19;161949;-17
2022/05/04 07:11:39;;;;;;;7.25;5.30;;;;;;;;;;7329347;19;162633;-15
2022/05/04 07:14:13;;;;;;;8.85;5.05;;;;;;;;;;7329596;19;154397;-17
2022/05/04 07:16:44;;;;;;;7.97;5.28;;;;;;;;;;7329530;19;153574;-16
2022/05/04 07:19:17;;;;;;;6.05;4.75;;;;;;;;;;7329174;19;161781;-15
2022/05/04 07:21:48;;;;;;;6.28;5.50;;;;;;;;;;7329034;19;162310;-16
2022/05/04 07:24:20;;;;;;;5.30;4.75;;;;;;;;;;7329375;19;154190;-17
2022/05/04 07:26:51;;;;;;;10.68;6.00;;;;;;;;;;7326759;19;153925;-14
2022/05/04 07:29:26;;;;;;;7.97;5.15;;;;;;;;;;7328500;19;161842;-18
2022/05/04 07:31:57;;;;;;;6.82;5.45;;;;;;;;;;7327658;19;162587;-15
2022/05/04 07:34:29;;;;;;;6.32;5.03;;;;;;;;;;7328782;19;154365;-17
2022/05/04 07:37:01;;;;;;;5.93;4.97;;;;;;;;;;7326494;19;153513;-16
2022/05/04 07:42:25;;;;;;;8.23;5.53;;;;;;;;;;7327118;19;163145;-17
2022/05/04 07:45:05;;;;;;;10.07;5.32;;;;;;;;;;7328760;19;154158;-16
2022/05/04 07:47:38;;;;;;;9.40;4.90;;;;;;;;;;7325984;19;153911;-16
2022/05/04 07:50:11;;;;;;;7.07;4.97;;;;;;;;;;7328815;19;161840;-17
2022/05/04 07:52:43;;;;;;;8.25;4.65;;;;;;;;;;7328389;19;162372;-16
2022/05/04 07:55:15;;;;;;;7.03;5.45;;;;;;;;;;7327367;19;154106;-17
2022/05/04 07:57:48;;;;;;;11.57;5.47;;;;;;;;;;7328291;19;153542;-17
2022/05/04 08:05:50;;;;;;;5.47;4.68;;;;;;;;;;7335325;19;154238;-18
2022/05/04 08:08:21;;;;;;;11.43;4.60;;;;;;;;;;7333144;19;153594;-15
2022/05/04 08:10:53;;;;;;;7.40;4.30;;;;;;;;;;7334348;19;161843;-17
2022/05/04 08:13:24;;;;;;;7.63;4.80;;;;;;;;;;7334493;19;162556;-16
2022/05/04 08:15:58;;;;;;;9.70;5.15;;;;;;;;;;7334492;19;154080;-17
2022/05/04 08:18:29;;;;;;;7.53;5.13;;;;;;;;;;7334806;19;153590;-17
2022/05/04 08:21:01;;;;;;;5.75;4.63;;;;;;;;;;7334353;19;161867;-18
2022/05/04 08:23:33;;;;;;;6.15;4.60;;;;;;;;;;7333788;19;162321;-14
2022/05/04 08:26:05;;;;;;;6.88;4.80;;;;;;;;;;7339256;19;154125;-16
2022/05/04 08:28:36;;;;;;;7.28;5.43;;;;;;;;;;7335600;19;153651;-16
2022/05/04 08:31:10;;;;;;;7.47;5.50;;;;;;;;;;7336630;19;162000;-16
2022/05/04 08:33:41;;;;;;;7.45;5.43;;;;;;;;;;7332368;19;162363;-15
2022/05/04 08:36:13;;;;;;;10.07;5.68;;;;;;;;;;7335747;19;154044;-15
2022/05/04 08:38:44;;;;;;;11.02;5.65;;;;;;;;;;7333875;19;153759;-17
2022/05/04 08:41:15;;;;;;;9.20;5.43;;;;;;;;;;7333357;19;161898;-15
2022/05/04 08:43:48;;;;;;;6.18;4.97;;;;;;;;;;7333303;19;162365;-21
2022/05/04 08:46:26;;;;;;;5.78;5.10;;;;;;;;;;7333584;19;154254;-19
2022/05/04 08:48:57;;;;;;;5.55;4.97;;;;;;;;;;7331495;19;153532;-17
2022/05/04 08:51:29;;;;;;;8.90;5.15;;;;;;;;;;7333248;19;161894;-17
2022/05/04 08:54:00;;;;;;;7.10;5.65;;;;;;;;;;7331940;19;162492;-16
2022/05/04 08:56:31;;;;;;;6.05;5.20;;;;;;;;;;7333505;19;154556;-17
2022/05/04 08:59:04;;;;;;;6.82;5.50;;;;;;;;;;7333228;19;153525;-17
2022/05/04 09:01:40;;;;;;;6.00;4.95;;;;;;;;;;7336158;19;161831;-16
2022/05/04 09:04:11;;;;;;;6.20;5.45;;;;;;;;;;7332600;19;162705;-17
2022/05/04 09:06:46;;;;;;;5.88;4.82;;;;;;;;;;7333180;19;154019;-15
2022/05/04 09:09:18;;;;;;;7.32;4.82;;;;;;;;;;7330913;19;153578;-15
2022/05/04 09:11:49;;;;;;;6.45;4.85;;;;;;;;;;7330247;19;162064;-16
2022/05/04 09:14:26;;;;;;;7.22;5.10;;;;;;;;;;7330858;19;162360;-18
2022/05/04 09:17:00;;;;;;;5.78;5.05;;;;;;;;;;7333162;19;154007;-15
2022/05/04 09:19:32;;;;;;;6.93;4.72;;;;;;;;;;7332642;19;153596;-15
2022/05/04 09:22:03;;;;;;;5.07;4.53;;;;;;;;;;7332328;19;161886;-14
2022/05/04 09:24:35;;;;;;;7.18;4.97;;;;;;;;;;7332021;19;162270;-24
2022/05/04 09:27:11;;;;;;;4.75;4.10;;;;;;;;;;7332622;19;154143;-18
2022/05/04 09:29:42;;;;;;;5.05;4.55;;;;;;;;;;7329890;19;153501;-18
2022/05/04 09:32:21;;;;;;;5.10;4.57;;;;;;;;;;7331909;19;162009;-15
2022/05/04 09:34:57;;;;;;;6.97;5.13;;;;;;;;;;7331150;19;162315;-16
2022/05/04 09:45:42;;;;;;;6.43;5.18;;;;;;;;;;7333927;19;162726;-15
2022/05/04 09:48:17;;;;;;;8.95;5.20;;;;;;;;;;7334537;19;154642;-13
2022/05/04 09:50:48;;;;;;;7.07;5.25;;;;;;;;;;7335260;19;153420;-17
2022/05/04 09:53:29;;;;;;;5.35;4.85;;;;;;;;;;7331023;19;162066;-17
2022/05/04 09:56:01;;;;;;;5.40;4.60;;;;;;;;;;7335409;19;162704;-19
2022/05/04 09:58:33;;;;;;;5.35;4.28;;;;;;;;;;7332333;19;154172;-16
2022/05/04 10:01:06;;;;;;;7.10;4.63;;;;;;;;;;7330909;19;153585;-14
2022/05/04 10:03:41;;;;;;;6.63;4.40;;;;;;;;;;7332437;19;162124;-15
2022/05/04 10:06:12;;;;;;;5.78;4.93;;;;;;;;;;7328929;19;162356;-15
2022/05/04 10:08:44;;;;;;;6.72;4.55;;;;;;;;;;7328857;19;154049;-16
2022/05/04 10:11:15;;;;;;;7.03;4.72;;;;;;;;;;7332792;19;153536;-15
2022/05/04 10:13:47;;;;;;;6.03;4.50;;;;;;;;;;7331740;19;162155;-17
2022/05/04 10:16:19;;;;;;;5.32;4.38;;;;;;;;;;7330226;19;162520;-15
2022/05/04 10:18:54;;;;;;;8.65;4.80;;;;;;;;;;7330485;19;154281;-13
2022/05/04 10:21:27;;;;;;;6.43;4.38;;;;;;;;;;7330884;19;153675;-15
2022/05/04 10:24:02;;;;;;;6.03;5.43;;;;;;;;;;7332936;19;161975;-16
2022/05/04 10:26:37;;;;;;;6.22;4.43;;;;;;;;;;7330693;19;162551;-16
2022/05/04 10:32:29;;;;;;;5.43;4.20;;;;;;;;;;7333173;19;154130;-17
2022/05/04 10:35:21;;;;;;;6.00;5.00;;;;;;;;;;7334907;19;162360;-17
2022/05/04 10:37:57;;;;;;;8.32;4.95;;;;;;;;;;7333186;19;162463;-16
2022/05/04 10:40:29;;;;;;;6.18;5.03;;;;;;;;;;7331755;19;154720;-15
2022/05/04 10:43:02;;;;;;;;;;;;;;;;;;7334409;19;154538;-15
2022/05/04 10:45:35;;;;;;;7.45;5.22;;;;;;;;;;7330266;19;162112;-16
2022/05/04 10:48:25;;;;;;;5.35;4.50;;;;;;;;;;7332740;19;162468;-17
2022/05/04 10:51:01;;;;;;;7.13;4.72;;;;;;;;;;7331859;19;153972;-17
2022/05/04 10:53:41;;;;;;;6.32;4.75;;;;;;;;;;7330020;19;153657;-17
2022/05/04 10:56:15;;;;;;;6.05;4.40;;;;;;;;;;7332076;19;161895;-14
2022/05/04 10:59:01;;;;;;;6.50;5.28;;;;;;;;;;7333223;19;163093;-17
2022/05/04 11:01:34;;;;;;;6.65;5.30;;;;;;;;;;7331847;19;154077;-15
2022/05/04 11:04:10;;;;;;;6.38;4.70;;;;;;;;;;7330003;19;153761;-16
2022/05/04 11:06:46;;;;;;;5.60;4.70;;;;;;;;;;7332752;19;161969;-17
2022/05/04 11:09:18;;;;;;;4.97;4.57;;;;;;;;;;7330027;19;162547;-16
2022/05/04 11:11:51;;;;;;;8.20;4.63;;;;;;;;;;7334111;19;154028;-15
2022/05/04 11:14:24;;;;;;;5.07;4.45;;;;;;;;;;7331328;19;153530;-16
2022/05/04 11:16:56;;;;;;;4.50;4.03;;;;;;;;;;7330213;19;161935;-14
2022/05/04 11:19:28;;;;;;;;;;;;;;;;;;7331752;19;162423;-17
2022/05/04 11:22:03;;;;;;;5.40;4.95;;;;;;;;;;7332641;19;154168;-17
2022/05/04 11:24:35;;;;;;;6.50;4.30;;;;;;;;;;7330050;19;153994;-14
2022/05/04 11:27:06;;;;;;;5.38;4.90;;;;;;;;;;7330568;19;161942;-14
2022/05/04 11:29:38;;;;;;;5.20;4.78;;;;;;;;;;7330609;19;162385;-15
2022/05/04 11:32:10;;;;;;;5.10;4.60;;;;;;;;;;7332417;19;154372;-15
2022/05/04 11:34:41;;;;;;;6.10;5.10;;;;;;;;;;7328645;19;153664;-16
2022/05/04 11:37:15;;;;;;;5.10;4.00;;;;;;;;;;7327125;19;161797;-22
2022/05/04 11:39:46;;;;;;;6.60;4.72;;;;;;;;;;7330093;19;162586;-19
2022/05/04 11:42:18;;;;;;;5.80;4.72;;;;;;;;;;7327296;19;153998;-14
2022/05/04 11:44:52;;;;;;;4.93;4.43;;;;;;;;;;7327963;19;153636;-16
2022/05/04 11:47:23;;;;;;;6.50;4.70;;;;;;;;;;7331756;19;162019;-15
2022/05/04 11:49:57;;;;;;;5.00;4.50;;;;;;;;;;7329478;19;162607;-18
2022/05/04 11:52:31;;;;;;;4.82;4.38;;;;;;;;;;7329562;19;154170;-16
2022/05/04 11:55:04;;;;;;;5.20;4.13;;;;;;;;;;7330650;19;153529;-16
2022/05/04 11:57:43;;;;;;;5.13;4.63;;;;;;;;;;7325678;19;161913;-14
2022/05/04 12:00:17;;;;;;;6.03;4.57;;;;;;;;;;7323168;19;162579;-16
2022/05/04 12:02:49;;;;;;;4.50;3.80;;;;;;;;;;7329324;19;154120;-16
2022/05/04 12:05:20;;;;;;;4.87;4.43;;;;;;;;;;7327882;19;153733;-14
2022/05/04 12:07:54;;;;;;;6.00;4.38;;;;;;;;;;7325821;19;161994;-14
2022/05/04 12:10:26;;;;;;;5.88;4.07;;;;;;;;;;7325788;19;162657;-17
2022/05/04 12:12:58;;;;;;;5.15;4.65;;;;;;;;;;7331462;19;154066;-16
2022/05/04 12:15:30;;;;;;;3.88;3.38;;;;;;;;;;7328109;19;153595;-16
2022/05/04 12:18:02;;;;;;;5.17;4.00;;;;;;;;;;7329468;19;161891;-17
2022/05/04 12:20:35;;;;;;;6.20;4.27;;;;;;;;;;7328531;19;162344;-17
2022/05/04 12:23:08;;;;;;;4.80;4.00;;;;;;;;;;7326488;19;153983;-20
2022/05/04 12:25:42;;;;;;;4.22;3.85;;;;;;;;;;7330401;19;153279;-17
2022/05/04 12:28:14;;;;;;;3.90;3.60;;;;;;;;;;7326939;19;161791;-15
2022/05/04 12:33:33;;;;;;;4.07;3.58;;;;;;;;;;7328287;19;154055;-15
2022/05/04 12:36:07;;;;;;;3.60;3.30;;;;;;;;;;7329686;19;155199;-16
2022/05/04 12:38:46;;;;;;;5.03;3.97;;;;;;;;;;7327581;19;161786;-15
2022/05/04 12:41:20;;;;;;;5.07;3.58;;;;;;;;;;7328806;19;162401;-21
2022/05/04 12:43:53;;;;;;;3.78;3.47;;;;;;;;;;7330689;19;154033;-16
2022/05/04 12:46:24;;;;;;;7.75;4.00;;;;;;;;;;7329285;19;153582;-15
2022/05/04 12:48:56;;;;;;;3.80;3.50;;;;;;;;;;7336770;19;161813;-16
2022/05/04 12:51:28;;;;;;;4.25;2.92;;;;;;;;;;7334712;19;162507;-15
2022/05/04 12:54:02;;;;;;;4.07;3.67;;;;;;;;;;7337690;19;154379;-14
2022/05/04 12:56:50;;;;;;;5.30;3.78;;;;;;;;;;7338082;19;153733;-14
2022/05/04 12:59:22;;;;;;;15.90;7.30;;;;;;;;;;7336120;19;161826;-16
2022/05/04 13:01:54;;;;;;;19.42;7.82;;;;;;;;;;7336989;19;162541;-15
2022/05/04 13:04:25;;;;;;;16.60;7.05;;;;;;;;;;7335293;19;154203;-17
2022/05/04 13:06:56;;;;;;;19.65;8.77;;;;;;;;;;7336478;19;153718;-16
2022/05/04 13:09:30;;;;;;;14.18;6.68;;;;;;;;;;7334929;19;161836;-21
2022/05/04 13:12:01;;;;;;;14.80;6.07;;;;;;;;;;7330741;19;162385;-16
2022/05/04 13:14:32;;;;;;;10.45;6.55;;;;;;;;;;7337003;19;154797;-17
2022/05/04 13:17:04;;;;;;;11.07;5.85;;;;;;;;;;7332258;19;154286;-15
2022/05/04 13:19:36;;;;;;;13.25;6.05;;;;;;;;;;7334798;19;162071;-16
2022/05/04 13:22:07;;;;;;;14.10;6.20;;;;;;;;;;7335489;19;162161;-14
2022/05/04 13:24:41;;;;;;;11.10;6.15;;;;;;;;;;7332894;19;154109;-16
2022/05/04 13:27:12;;;;;;;12.63;5.80;;;;;;;;;;7333295;19;154179;-16
2022/05/04 13:29:44;;;;;;;10.70;6.05;;;;;;;;;;7331060;19;162005;-16
2022/05/04 13:32:15;;;;;;;12.00;6.43;;;;;;;;;;7328806;19;162419;-15
2022/05/04 13:34:46;;;;;;;11.20;5.65;;;;;;;;;;7337023;19;154058;-16
2022/05/04 13:37:18;;;;;;;13.13;5.40;;;;;;;;;;7330598;19;153706;-16
2022/05/04 13:39:52;;;;;;;13.10;5.68;;;;;;;;;;7333408;19;161957;-15
2022/05/04 13:42:23;;;;;;;11.07;6.00;;;;;;;;;;7330244;19;162258;-17
2022/05/04 13:44:55;;;;;;;13.25;6.50;;;;;;;;;;7333058;19;153997;-16
2022/05/04 13:47:27;;;;;;;9.60;5.57;;;;;;;;;;7332908;19;153569;-14
2022/05/04 13:49:58;;;;;;;15.13;5.55;;;;;;;;;;7332525;19;162254;-15
2022/05/04 13:55:16;;;;;;;9.48;5.03;;;;;;;;;;7332856;19;154300;-17
2022/05/04 13:57:48;;;;;;;10.30;5.05;;;;;;;;;;7332600;19;153798;-14
2022/05/04 14:00:20;;;;;;;9.43;5.28;;;;;;;;;;7330499;19;162631;-13
2022/05/04 14:02:51;;;;;;;9.75;5.55;;;;;;;;;;7330733;19;162496;-13
2022/05/04 14:05:23;;;;;;;8.98;4.78;;;;;;;;;;7332474;19;153825;-16
2022/05/04 14:07:54;;;;;;;10.27;5.20;;;;;;;;;;7332141;19;154042;-15
2022/05/04 14:10:28;;;;;;;8.00;5.15;;;;;;;;;;7331783;19;162050;-16
2022/05/04 14:13:00;;;;;;;7.70;4.57;;;;;;;;;;7331814;19;162359;-16
2022/05/04 14:15:32;;;;;;;8.20;5.20;;;;;;;;;;7332232;19;154236;-15
2022/05/04 14:18:05;;;;;;;8.25;4.68;;;;;;;;;;7332384;19;153510;-16
2022/05/04 14:20:36;;;;;;;8.02;4.78;;;;;;;;;;7330728;19;162090;-17
2022/05/04 14:23:08;;;;;;;10.10;5.28;;;;;;;;;;7330166;19;162439;-16
2022/05/04 14:25:42;;;;;;;6.90;4.32;;;;;;;;;;7331710;19;153977;-17
2022/05/04 14:28:13;;;;;;;7.68;4.80;;;;;;;;;;7331896;19;153621;-15
2022/05/04 14:30:45;;;;;;;5.03;4.15;;;;;;;;;;7331133;19;161843;-16
2022/05/04 14:33:16;;;;;;;11.10;4.85;;;;;;;;;;7332619;19;162733;-16
2022/05/04 14:35:47;;;;;;;7.00;4.30;;;;;;;;;;7330953;19;153963;-17
2022/05/04 14:38:20;;;;;;;6.65;4.60;;;;;;;;;;7331231;19;153486;-16
2022/05/04 14:40:54;;;;;;;6.00;4.45;;;;;;;;;;7330890;19;161921;-15
2022/05/04 14:43:29;;;;;;;7.25;4.47;;;;;;;;;;7331968;19;162351;-15
2022/05/04 14:46:00;;;;;;;8.13;4.90;;;;;;;;;;7330916;19;153993;-17
2022/05/04 14:48:32;;;;;;;7.43;4.47;;;;;;;;;;7331134;19;153622;-17
2022/05/04 14:51:03;;;;;;;8.65;5.10;;;;;;;;;;7330216;19;161875;-16
2022/05/04 14:53:34;;;;;;;7.20;4.82;;;;;;;;;;7329003;19;162522;-16
2022/05/04 14:56:10;;;;;;;6.80;4.53;;;;;;;;;;7330478;19;154205;-14
2022/05/04 14:58:41;;;;;;;8.85;4.55;;;;;;;;;;7330620;19;153542;-15
2022/05/04 15:01:12;;;;;;;6.72;4.18;;;;;;;;;;7329920;19;161946;-14
2022/05/04 15:06:28;;;;;;;6.15;4.07;;;;;;;;;;7330203;19;154114;-15
2022/05/04 15:08:59;;;;;;;5.80;4.32;;;;;;;;;;7330217;19;153664;-15
2022/05/04 15:11:33;;;;;;;5.50;4.30;;;;;;;;;;7328745;19;161963;-16
2022/05/04 15:14:04;;;;;;;7.50;4.38;;;;;;;;;;7329371;19;162591;-16
2022/05/04 15:16:35;;;;;;;7.45;4.68;;;;;;;;;;7329877;19;154156;-15
2022/05/04 15:19:07;;;;;;;7.50;3.65;;;;;;;;;;7329825;19;153759;-15
2022/05/04 15:21:38;;;;;;;6.40;4.28;;;;;;;;;;7329401;19;161806;-16
2022/05/04 15:24:10;;;;;;;6.97;4.18;;;;;;;;;;7329153;19;162470;-16
2022/05/04 15:26:43;;;;;;;5.05;4.00;;;;;;;;;;7329880;19;154106;-15
2022/05/04 15:29:15;;;;;;;12.80;4.15;;;;;;;;;;7329684;19;153558;-15
2022/05/04 15:31:46;;;;;;;4.07;3.67;;;;;;;;;;7328865;19;161859;-17
2022/05/04 15:34:18;;;;;;;7.05;4.05;;;;;;;;;;7329185;19;162450;-15
2022/05/04 15:36:50;;;;;;;5.60;4.05;;;;;;;;;;7327128;19;155297;-16
2022/05/04 15:39:21;;;;;;;6.68;4.20;;;;;;;;;;7329187;19;153711;-16
2022/05/04 15:41:55;;;;;;;10.93;3.90;;;;;;;;;;7328740;19;161857;-17
2022/05/04 15:44:27;;;;;;;5.88;3.90;;;;;;;;;;7328593;19;162392;-16